createdAt,value
2022-08-17T00:01:51.869Z,23.78
2022-08-17T00:04:22.362Z,23.85
2022-08-17T00:06:54.186Z,23.81
2022-08-17T00:09:32.233Z,23.84
2022-08-17T00:12:42.216Z,23.82
2022-08-17T00:15:10.617Z,23.86
2022-08-17T00:17:44.505Z,23.81
2022-08-17T00:20:17.553Z,23.77
2022-08-17T00:23:04.805Z,23.70
2022-08-17T00:25:35.174Z,23.66
2022-08-17T00:28:07.261Z,23.71
2022-08-17T00:30:51.086Z,23.73
2022-08-17T00:33:26.346Z,23.73
2022-08-17T00:35:58.205Z,23.62
2022-08-17T00:38:28.271Z,23.63
2022-08-17T00:41:03.124Z,23.61
2022-08-17T00:43:42.824Z,23.70
2022-08-17T00:46:20.868Z,23.64
2022-08-17T00:48:52.096Z,23.61
2022-08-17T00:51:38.128Z,23.52
2022-08-17T00:54:21.409Z,23.60
2022-08-17T00:56:53.720Z,23.54
2022-08-17T00:59:28.799Z,23.54
2022-08-17T01:01:56.861Z,23.58
2022-08-17T01:04:30.739Z,23.55
2022-08-17T01:07:06.786Z,23.45
2022-08-17T01:09:37.768Z,23.43
2022-08-17T01:12:11.186Z,23.45
2022-08-17T01:14:46.504Z,23.51
2022-08-17T01:17:17.985Z,23.55
2022-08-17T01:19:50.031Z,23.62
2022-08-17T01:22:25.515Z,23.64
2022-08-17T01:25:09.357Z,23.56
2022-08-17T01:27:44.640Z,23.65
2022-08-17T01:30:58.839Z,23.48
2022-08-17T01:33:11.823Z,23.57
2022-08-17T01:35:42.528Z,23.64
2022-08-17T01:41:09.249Z,23.45
2022-08-17T01:43:55.285Z,23.59
2022-08-17T01:46:34.022Z,23.64
2022-08-17T01:49:22.981Z,23.66
2022-08-17T01:51:58.746Z,23.62
2022-08-17T01:54:35.419Z,23.78
2022-08-17T01:57:11.201Z,23.83
2022-08-17T01:59:42.659Z,23.82
2022-08-17T02:02:11.492Z,23.76
2022-08-17T02:05:03.430Z,23.84
2022-08-17T02:07:48.000Z,23.73
2022-08-17T02:10:34.261Z,23.69
2022-08-17T02:13:07.311Z,23.65
2022-08-17T02:16:04.861Z,23.57
2022-08-17T02:18:43.762Z,23.64
2022-08-17T02:21:13.790Z,23.61
2022-08-17T02:23:51.162Z,23.73
2022-08-17T02:26:26.775Z,23.59
2022-08-17T02:28:56.270Z,23.70
2022-08-17T02:31:26.947Z,23.73
2022-08-17T02:34:28.640Z,23.69
2022-08-17T02:37:00.070Z,23.80
2022-08-17T02:39:35.967Z,23.81
2022-08-17T02:42:07.926Z,23.87
2022-08-17T02:44:40.244Z,23.85
2022-08-17T02:47:21.143Z,23.79
2022-08-17T02:49:54.338Z,23.83
2022-08-17T02:52:43.825Z,23.87
2022-08-17T02:55:18.632Z,23.60
2022-08-17T02:57:51.380Z,23.72
2022-08-17T03:00:29.311Z,23.71
2022-08-17T03:03:11.464Z,23.64
2022-08-17T03:05:42.599Z,23.55
2022-08-17T03:08:13.149Z,23.45
2022-08-17T03:10:41.727Z,23.40
2022-08-17T03:13:13.112Z,23.37
2022-08-17T03:15:47.281Z,23.29
2022-08-17T03:18:26.375Z,23.16
2022-08-17T03:21:05.868Z,23.17
2022-08-17T03:23:34.419Z,23.17
2022-08-17T03:26:04.948Z,23.15
2022-08-17T03:28:42.432Z,23.03
2022-08-17T03:31:19.708Z,23.08
2022-08-17T03:33:49.677Z,23.11
2022-08-17T03:36:21.577Z,23.01
2022-08-17T03:38:59.024Z,23.06
2022-08-17T03:41:31.260Z,23.06
2022-08-17T03:44:05.560Z,23.02
2022-08-17T03:46:57.946Z,23.05
2022-08-17T03:49:50.711Z,23.01
2022-08-17T03:52:38.745Z,23.11
2022-08-17T03:55:36.161Z,22.95
2022-08-17T03:58:05.841Z,23.02
2022-08-17T04:00:39.661Z,23.04
2022-08-17T04:03:07.637Z,23.01
2022-08-17T04:05:40.822Z,22.96
2022-08-17T04:08:38.138Z,23.00
2022-08-17T04:11:13.343Z,23.09
2022-08-17T04:13:43.686Z,23.05
2022-08-17T04:16:20.622Z,23.04
2022-08-17T04:18:53.558Z,23.13
2022-08-17T04:21:29.354Z,23.05
2022-08-17T04:23:58.259Z,23.08
2022-08-17T04:26:53.001Z,23.09
2022-08-17T04:29:28.538Z,23.12
2022-08-17T04:32:21.746Z,23.07
2022-08-17T04:35:16.963Z,23.12
2022-08-17T04:37:53.766Z,23.15
2022-08-17T04:40:42.639Z,23.18
2022-08-17T04:43:18.745Z,23.20
2022-08-17T04:45:56.296Z,23.16
2022-08-17T04:48:37.266Z,23.31
2022-08-17T04:51:14.516Z,23.32
2022-08-17T04:53:56.406Z,23.43
2022-08-17T04:56:32.670Z,23.40
2022-08-17T04:59:23.844Z,23.61
2022-08-17T05:01:57.118Z,23.58
2022-08-17T05:04:34.907Z,23.69
2022-08-17T05:07:04.413Z,23.63
2022-08-17T05:09:32.683Z,23.67
2022-08-17T05:12:06.152Z,23.76
2022-08-17T05:14:39.689Z,23.80
2022-08-17T05:17:11.116Z,23.84
2022-08-17T05:19:40.368Z,23.93
2022-08-17T05:22:11.742Z,23.97
2022-08-17T05:24:53.848Z,24.16
2022-08-17T05:27:32.920Z,24.39
2022-08-17T05:30:07.799Z,24.60
2022-08-17T05:35:39.133Z,24.77
2022-08-17T05:38:30.849Z,24.56
2022-08-17T05:41:09.729Z,24.86
2022-08-17T05:48:05.577Z,25.34
2022-08-17T05:50:49.330Z,25.16
2022-08-17T05:53:32.953Z,25.59
2022-08-17T05:57:03.384Z,25.54
2022-08-17T06:00:08.536Z,25.85
2022-08-17T06:03:14.610Z,25.76
2022-08-17T06:05:45.097Z,25.50
2022-08-17T06:08:40.201Z,25.97
2022-08-17T06:11:45.166Z,25.67
2022-08-17T06:14:28.324Z,26.29
2022-08-17T06:17:10.246Z,26.09
2022-08-17T06:19:52.294Z,26.26
2022-08-17T06:22:27.540Z,26.66
2022-08-17T06:25:11.597Z,26.90
2022-08-17T06:28:02.367Z,26.82
2022-08-17T06:30:59.271Z,26.97
2022-08-17T06:33:32.336Z,26.89
2022-08-17T06:36:09.517Z,27.23
2022-08-17T06:39:16.543Z,27.17
2022-08-17T06:43:00.819Z,27.35
2022-08-17T06:45:17.246Z,27.18
2022-08-17T06:48:17.315Z,27.87
2022-08-17T06:54:50.993Z,27.97
2022-08-17T06:57:50.895Z,28.13
2022-08-17T07:00:24.253Z,28.00
2022-08-17T07:03:02.620Z,28.01
2022-08-17T07:05:57.433Z,28.09
2022-08-17T07:09:19.745Z,28.42
2022-08-17T07:11:55.251Z,28.33
2022-08-17T07:14:37.943Z,28.55
2022-08-17T07:17:13.295Z,28.83
2022-08-17T07:23:05.736Z,27.94
2022-08-17T07:25:33.887Z,28.46
2022-08-17T07:28:06.999Z,28.90
2022-08-17T07:30:51.575Z,29.28
2022-08-17T07:33:27.614Z,29.51
2022-08-17T07:35:58.275Z,28.51
2022-08-17T07:38:37.875Z,29.28
2022-08-17T07:41:07.838Z,29.42
2022-08-17T07:43:49.932Z,29.97
2022-08-17T07:46:51.116Z,29.76
2022-08-17T07:49:31.924Z,30.17
2022-08-17T07:52:47.433Z,29.59
2022-08-17T07:54:51.912Z,30.27
2022-08-17T07:57:19.510Z,30.21
2022-08-17T08:00:02.052Z,29.92
2022-08-17T08:02:42.413Z,30.06
2022-08-17T08:05:48.547Z,30.80
2022-08-17T08:08:55.832Z,30.51
2022-08-17T08:11:33.677Z,30.78
2022-08-17T08:14:31.959Z,31.08
2022-08-17T08:17:05.504Z,31.05
2022-08-17T08:19:35.975Z,31.00
2022-08-17T08:22:13.123Z,31.13
2022-08-17T08:25:04.540Z,31.17
2022-08-17T08:27:49.816Z,30.70
2022-08-17T08:30:28.429Z,31.50
2022-08-17T08:33:32.296Z,31.91
2022-08-17T08:36:59.274Z,31.56
2022-08-17T08:39:34.644Z,30.90
2022-08-17T08:42:20.922Z,31.06
2022-08-17T08:45:17.106Z,30.65
2022-08-17T08:48:12.745Z,31.72
2022-08-17T08:51:12.563Z,31.41
2022-08-17T08:54:02.306Z,31.63
2022-08-17T08:57:22.306Z,31.85
2022-08-17T09:00:07.593Z,32.01
2022-08-17T09:03:00.137Z,32.61
2022-08-17T09:05:53.599Z,32.64
2022-08-17T09:08:37.010Z,32.84
2022-08-17T09:11:17.666Z,33.14
2022-08-17T09:14:21.272Z,32.84
2022-08-17T09:17:19.976Z,32.68
2022-08-17T09:20:28.130Z,32.21
2022-08-17T09:23:19.934Z,32.13
2022-08-17T09:26:10.466Z,32.80
2022-08-17T09:28:41.509Z,32.96
2022-08-17T09:31:18.149Z,33.54
2022-08-17T09:33:48.724Z,33.50
2022-08-17T09:36:39.538Z,33.93
2022-08-17T09:39:17.613Z,33.19
2022-08-17T09:42:00.297Z,33.08
2022-08-17T09:45:09.967Z,32.36
2022-08-17T09:47:56.006Z,32.60
2022-08-17T09:51:05.262Z,33.15
2022-08-17T09:53:34.548Z,32.80
2022-08-17T09:56:28.676Z,32.88
2022-08-17T09:59:41.996Z,32.71
2022-08-17T10:02:22.798Z,33.47
2022-08-17T10:05:08.934Z,34.25
2022-08-17T10:07:54.280Z,34.36
2022-08-17T10:10:43.490Z,34.84
2022-08-17T10:13:36.024Z,33.84
2022-08-17T10:16:26.653Z,34.55
2022-08-17T10:19:16.281Z,33.44
2022-08-17T10:22:14.497Z,34.22
2022-08-17T10:25:23.677Z,33.29
2022-08-17T10:28:00.048Z,34.10
2022-08-17T10:30:34.981Z,34.96
2022-08-17T10:33:14.556Z,34.68
2022-08-17T10:35:57.234Z,35.06
2022-08-17T10:38:42.421Z,34.87
2022-08-17T10:41:53.001Z,33.83
2022-08-17T10:44:41.216Z,34.65
2022-08-17T10:48:21.029Z,35.03
2022-08-17T10:51:36.614Z,35.22
2022-08-17T10:54:25.895Z,35.42
2022-08-17T10:56:56.932Z,34.91
2022-08-17T10:59:37.085Z,34.53
2022-08-17T11:02:20.813Z,34.90
2022-08-17T11:05:09.421Z,35.27
2022-08-17T11:07:48.927Z,35.62
2022-08-17T11:10:40.681Z,34.66
2022-08-17T11:13:30.695Z,34.61
2022-08-17T11:16:09.185Z,34.94
2022-08-17T11:19:13.568Z,34.29
2022-08-17T11:22:06.819Z,34.55
2022-08-17T11:24:49.269Z,34.48
2022-08-17T11:27:33.400Z,35.05
2022-08-17T11:30:51.196Z,34.88
2022-08-17T11:33:29.869Z,35.51
2022-08-17T11:36:19.464Z,36.16
2022-08-17T11:39:06.187Z,35.28
2022-08-17T11:41:58.312Z,35.72
2022-08-17T11:44:45.556Z,35.29
2022-08-17T11:47:35.331Z,35.67
2022-08-17T11:50:55.484Z,35.62
2022-08-17T11:53:43.084Z,36.00
2022-08-17T11:56:48.827Z,37.17
2022-08-17T11:59:50.618Z,37.35
2022-08-17T12:02:21.907Z,36.34
2022-08-17T12:05:17.719Z,36.64
2022-08-17T12:08:04.456Z,36.93
2022-08-17T12:10:36.416Z,37.05
2022-08-17T12:13:13.465Z,37.09
2022-08-17T12:15:48.800Z,37.24
2022-08-17T12:18:21.972Z,37.84
2022-08-17T12:21:18.716Z,37.01
2022-08-17T12:24:16.379Z,36.25
2022-08-17T12:26:58.465Z,36.56
2022-08-17T12:29:35.579Z,36.99
2022-08-17T12:32:13.346Z,37.38
2022-08-17T12:34:44.838Z,37.18
2022-08-17T12:37:26.623Z,37.54
2022-08-17T12:40:08.815Z,37.33
2022-08-17T12:42:39.507Z,37.14
2022-08-17T12:45:21.119Z,37.19
2022-08-17T12:47:49.036Z,37.63
2022-08-17T12:50:29.299Z,37.72
2022-08-17T12:53:02.080Z,38.27
2022-08-17T12:55:37.372Z,37.80
2022-08-17T12:58:15.088Z,37.89
2022-08-17T13:00:50.252Z,37.63
2022-08-17T13:03:25.890Z,37.17
2022-08-17T13:05:57.139Z,35.41
2022-08-17T13:08:38.065Z,36.27
2022-08-17T13:11:09.587Z,36.92
2022-08-17T13:13:43.965Z,36.08
2022-08-17T13:16:17.209Z,35.56
2022-08-17T13:19:06.058Z,35.56
2022-08-17T13:21:36.305Z,36.13
2022-08-17T13:24:11.367Z,35.38
2022-08-17T13:27:07.851Z,35.36
2022-08-17T13:30:15.233Z,35.82
2022-08-17T13:32:49.120Z,35.97
2022-08-17T13:35:43.419Z,36.31
2022-08-17T13:38:39.569Z,36.41
2022-08-17T13:41:07.720Z,36.11
2022-08-17T13:43:45.079Z,36.81
2022-08-17T13:46:26.738Z,36.43
2022-08-17T13:48:58.967Z,36.16
2022-08-17T13:51:33.239Z,36.13
2022-08-17T13:54:04.584Z,36.77
2022-08-17T13:56:47.318Z,36.42
2022-08-17T13:59:53.880Z,36.72
2022-08-17T14:02:17.698Z,36.95
2022-08-17T14:04:50.226Z,36.32
2022-08-17T14:07:20.050Z,36.34
2022-08-17T14:09:55.605Z,36.22
2022-08-17T14:12:27.121Z,35.55
2022-08-17T14:14:56.516Z,35.46
2022-08-17T14:17:25.358Z,35.86
2022-08-17T14:19:55.118Z,35.78
2022-08-17T14:22:33.120Z,35.55
2022-08-17T14:25:03.145Z,35.38
2022-08-17T14:27:41.643Z,35.07
2022-08-17T14:30:26.713Z,35.21
2022-08-17T14:33:02.284Z,34.85
2022-08-17T14:35:30.257Z,35.00
2022-08-17T14:37:58.236Z,35.20
2022-08-17T14:40:26.590Z,35.05
2022-08-17T14:43:12.842Z,34.93
2022-08-17T14:45:41.373Z,34.98
2022-08-17T14:48:08.851Z,35.12
2022-08-17T14:50:40.719Z,35.25
2022-08-17T14:53:15.714Z,35.53
2022-08-17T14:55:45.801Z,35.60
2022-08-17T14:58:14.987Z,35.69
2022-08-17T15:00:43.842Z,35.48
2022-08-17T15:03:11.923Z,35.72
2022-08-17T15:05:39.826Z,35.82
2022-08-17T15:08:07.382Z,35.18
2022-08-17T15:10:35.346Z,34.53
2022-08-17T15:13:08.379Z,34.60
2022-08-17T15:15:40.647Z,34.91
2022-08-17T15:18:10.385Z,35.21
2022-08-17T15:20:38.914Z,34.83
2022-08-17T15:23:18.775Z,34.63
2022-08-17T15:25:48.453Z,35.04
2022-08-17T15:28:16.445Z,35.03
2022-08-17T15:30:45.144Z,35.16
2022-08-17T15:33:18.848Z,35.29
2022-08-17T15:35:53.555Z,34.74
2022-08-17T15:38:22.994Z,35.08
2022-08-17T15:40:51.817Z,34.85
2022-08-17T15:43:28.132Z,34.56
2022-08-17T15:46:14.137Z,34.53
2022-08-17T15:48:49.205Z,34.12
2022-08-17T15:51:35.107Z,33.45
2022-08-17T15:54:18.670Z,33.50
2022-08-17T15:56:50.524Z,33.21
2022-08-17T15:59:18.512Z,33.16
2022-08-17T16:03:15.345Z,32.82
2022-08-17T16:04:35.013Z,32.86
2022-08-17T16:07:07.299Z,32.82
2022-08-17T16:09:35.040Z,32.78
2022-08-17T16:12:10.820Z,32.83
2022-08-17T16:14:38.538Z,32.65
2022-08-17T16:17:38.380Z,32.63
2022-08-17T16:19:55.907Z,32.46
2022-08-17T16:22:38.582Z,32.34
2022-08-17T16:25:10.423Z,32.32
2022-08-17T16:27:38.119Z,32.27
2022-08-17T16:30:07.827Z,32.20
2022-08-17T16:32:36.387Z,32.21
2022-08-17T16:35:06.197Z,32.05
2022-08-17T16:37:35.012Z,31.94
2022-08-17T16:40:09.626Z,31.87
2022-08-17T16:42:38.233Z,31.77
2022-08-17T16:45:09.997Z,31.63
2022-08-17T16:47:38.380Z,31.64
2022-08-17T16:50:11.651Z,31.56
2022-08-17T16:52:44.001Z,31.45
2022-08-17T16:55:16.677Z,31.48
2022-08-17T16:58:31.356Z,31.44
2022-08-17T17:01:29.609Z,31.39
2022-08-17T17:04:03.312Z,31.34
2022-08-17T17:06:50.547Z,31.30
2022-08-17T17:09:34.357Z,31.30
2022-08-17T17:12:12.667Z,31.28
2022-08-17T17:14:45.837Z,31.19
2022-08-17T17:17:30.597Z,31.10
2022-08-17T17:20:09.911Z,31.03
2022-08-17T17:22:48.164Z,30.95
2022-08-17T17:25:39.689Z,30.89
2022-08-17T17:28:42.827Z,30.88
2022-08-17T17:31:24.226Z,30.86
2022-08-17T17:34:11.495Z,30.85
2022-08-17T17:36:54.274Z,30.82
2022-08-17T17:39:45.994Z,30.70
2022-08-17T17:42:25.085Z,30.53
2022-08-17T17:45:18.518Z,30.41
2022-08-17T17:48:04.307Z,30.12
2022-08-17T17:50:49.586Z,30.06
2022-08-17T17:53:43.347Z,29.96
2022-08-17T17:56:45.410Z,29.90
2022-08-17T17:59:46.544Z,29.84
2022-08-17T18:02:52.159Z,29.70
2022-08-17T18:05:46.994Z,29.68
2022-08-17T18:08:53.381Z,29.36
2022-08-17T18:11:25.065Z,29.26
2022-08-17T18:14:25.297Z,29.03
2022-08-17T18:17:04.897Z,28.98
2022-08-17T18:19:33.410Z,28.83
2022-08-17T18:22:14.013Z,28.81
2022-08-17T18:24:48.330Z,28.80
2022-08-17T18:28:00.414Z,28.76
2022-08-17T18:31:20.515Z,28.80
2022-08-17T18:34:36.127Z,28.83
2022-08-17T18:37:46.291Z,28.93
2022-08-17T18:40:45.862Z,28.97
2022-08-17T18:43:53.475Z,28.93
2022-08-17T18:46:37.824Z,28.96
2022-08-17T18:49:28.358Z,28.92
2022-08-17T18:52:31.044Z,28.92
2022-08-17T18:55:05.202Z,28.92
2022-08-17T18:57:52.077Z,28.84
2022-08-17T19:00:46.060Z,28.82
2022-08-17T19:03:15.959Z,28.80
2022-08-17T19:06:12.453Z,28.68
2022-08-17T19:08:41.016Z,28.56
2022-08-17T19:11:36.502Z,28.50
2022-08-17T19:14:22.376Z,28.49
2022-08-17T19:20:03.044Z,28.40
2022-08-17T19:22:58.565Z,28.40
2022-08-17T19:25:46.800Z,28.29
2022-08-17T19:28:32.812Z,28.21
2022-08-17T19:31:19.390Z,28.20
2022-08-17T19:33:58.053Z,28.23
2022-08-17T19:36:42.069Z,28.22
2022-08-17T19:39:38.010Z,28.23
2022-08-17T19:42:58.133Z,28.29
2022-08-17T19:46:10.729Z,28.31
2022-08-17T19:49:33.431Z,28.27
2022-08-17T19:52:50.354Z,28.23
2022-08-17T19:55:50.425Z,28.16
2022-08-17T19:58:37.773Z,28.10
2022-08-17T20:01:13.794Z,28.08
2022-08-17T20:13:47.403Z,27.97
2022-08-17T20:16:40.910Z,27.99
2022-08-17T20:23:50.595Z,28.00
2022-08-17T20:26:36.439Z,27.96
2022-08-17T20:29:17.563Z,27.94
2022-08-17T20:32:35.322Z,27.93
2022-08-17T20:35:45.862Z,27.83
2022-08-17T20:38:45.765Z,27.86
2022-08-17T20:41:31.017Z,27.80
2022-08-17T20:44:37.914Z,27.72
2022-08-17T20:48:07.461Z,27.68
2022-08-17T20:50:45.082Z,27.70
2022-08-17T20:53:48.189Z,27.82
2022-08-17T20:56:44.504Z,27.89
2022-08-17T20:59:28.373Z,27.74
2022-08-17T21:02:30.099Z,27.56
2022-08-17T21:05:06.878Z,27.36
2022-08-17T21:07:43.087Z,27.21
2022-08-17T21:10:16.548Z,27.07
2022-08-17T21:12:56.997Z,26.98
2022-08-17T21:15:42.585Z,26.85
2022-08-17T21:22:33.865Z,26.92
2022-08-17T21:28:36.457Z,26.74
2022-08-17T21:32:01.146Z,26.75
2022-08-17T21:35:34.159Z,26.67
2022-08-17T21:38:16.320Z,26.50
2022-08-17T21:44:43.686Z,26.50
2022-08-17T21:47:46.470Z,26.59
2022-08-17T21:51:26.996Z,26.54
2022-08-17T21:54:41.391Z,26.62
2022-08-17T21:58:12.165Z,26.56
2022-08-17T22:01:33.495Z,26.46
2022-08-17T22:08:06.045Z,26.46
2022-08-17T22:11:37.051Z,26.47
2022-08-17T22:15:21.143Z,26.45
2022-08-17T22:18:33.911Z,26.48
2022-08-17T22:21:28.884Z,26.45
2022-08-17T22:24:28.869Z,26.52
2022-08-17T22:27:12.807Z,26.46
2022-08-17T22:29:57.406Z,26.51
2022-08-17T22:32:57.352Z,26.49
2022-08-17T22:36:09.990Z,26.48
2022-08-17T22:39:31.356Z,26.42
2022-08-17T22:42:19.734Z,26.42
2022-08-17T22:44:50.379Z,26.44
2022-08-17T22:47:43.268Z,26.48
2022-08-17T22:50:37.178Z,26.37
2022-08-17T22:53:39.120Z,26.37
2022-08-17T22:56:35.439Z,26.37
2022-08-17T22:59:32.485Z,26.28
2022-08-17T23:02:22.404Z,26.33
2022-08-17T23:05:16.027Z,26.33
2022-08-17T23:11:16.147Z,26.25
2022-08-17T23:13:54.807Z,26.21
2022-08-17T23:16:25.298Z,26.22
2022-08-17T23:18:56.352Z,26.15
2022-08-17T23:21:30.670Z,26.12
2022-08-17T23:24:12.179Z,26.10
2022-08-17T23:26:59.095Z,26.10
2022-08-17T23:33:21.460Z,26.11
2022-08-17T23:35:53.520Z,26.18
2022-08-17T23:39:02.766Z,26.11
2022-08-17T23:42:05.389Z,26.02
2022-08-17T23:44:35.606Z,25.92
2022-08-17T23:47:05.787Z,25.94
2022-08-17T23:49:48.567Z,26.01
2022-08-17T23:52:46.010Z,26.05
2022-08-17T23:55:20.019Z,26.05
2022-08-17T23:57:55.253Z,25.99
